createdAt,value
2023-06-14T00:01:47.145Z,5.43
2023-06-14T00:04:17.852Z,4.57
2023-06-14T00:06:46.280Z,2.97
2023-06-14T00:09:14.355Z,4.80
2023-06-14T00:11:45.595Z,2.70
2023-06-14T00:14:13.469Z,5.88
2023-06-14T00:16:43.194Z,2.47
2023-06-14T00:19:11.361Z,2.65
2023-06-14T00:21:39.158Z,4.25
2023-06-14T00:24:06.878Z,3.05
2023-06-14T00:26:34.807Z,4.18
2023-06-14T00:29:02.832Z,5.15
2023-06-14T00:31:31.263Z,5.72
2023-06-14T00:33:58.553Z,5.15
2023-06-14T00:36:26.564Z,2.70
2023-06-14T00:38:54.778Z,2.30
2023-06-14T00:41:23.502Z,4.18
2023-06-14T00:43:52.261Z,3.35
2023-06-14T00:46:20.710Z,3.88
2023-06-14T00:48:48.817Z,3.25
2023-06-14T00:51:17.292Z,4.25
2023-06-14T00:53:48.082Z,3.33
2023-06-14T00:58:45.619Z,1.75
2023-06-14T01:07:05.792Z,2.28
2023-06-14T01:09:42.147Z,2.03
2023-06-14T01:12:26.110Z,2.10
2023-06-14T01:14:53.764Z,3.10
2023-06-14T01:17:22.667Z,5.18
2023-06-14T01:19:54.459Z,2.50
2023-06-14T01:22:22.139Z,1.83
2023-06-14T01:24:50.417Z,1.48
2023-06-14T01:27:19.973Z,2.67
2023-06-14T01:29:49.222Z,3.63
2023-06-14T01:32:17.315Z,3.22
2023-06-14T01:34:45.295Z,5.22
2023-06-14T01:37:12.892Z,2.33
2023-06-14T01:39:40.871Z,2.97
2023-06-14T01:42:08.625Z,3.38
2023-06-14T01:44:36.009Z,1.40
2023-06-14T01:47:03.286Z,3.95
2023-06-14T01:49:31.303Z,4.72
2023-06-14T01:51:59.272Z,2.00
2023-06-14T01:54:26.705Z,2.83
2023-06-14T01:56:54.626Z,3.95
2023-06-14T01:59:22.096Z,2.22
2023-06-14T02:01:49.890Z,2.50
2023-06-14T02:04:17.556Z,2.72
2023-06-14T02:06:45.016Z,2.63
2023-06-14T02:09:12.655Z,2.72
2023-06-14T02:11:40.508Z,2.80
2023-06-14T02:14:08.160Z,3.88
2023-06-14T02:16:37.256Z,4.93
2023-06-14T02:19:04.993Z,1.98
2023-06-14T02:21:32.406Z,3.22
2023-06-14T02:23:59.941Z,2.97
2023-06-14T02:26:29.926Z,3.75
2023-06-14T02:28:57.265Z,3.40
2023-06-14T02:31:25.511Z,3.15
2023-06-14T02:33:53.208Z,3.75
2023-06-14T02:36:21.554Z,2.67
2023-06-14T02:38:49.224Z,6.55
2023-06-14T02:41:17.002Z,4.38
2023-06-14T02:43:44.759Z,2.63
2023-06-14T02:46:12.484Z,4.97
2023-06-14T02:48:39.993Z,5.80
2023-06-14T02:51:10.423Z,4.45
2023-06-14T02:53:38.684Z,4.82
2023-06-14T02:56:06.858Z,9.52
2023-06-14T02:58:34.826Z,6.38
2023-06-14T03:01:07.172Z,5.97
2023-06-14T03:03:35.080Z,5.65
2023-06-14T03:06:05.392Z,5.45
2023-06-14T03:08:39.428Z,4.33
2023-06-14T03:11:14.811Z,3.50
2023-06-14T03:13:42.601Z,6.35
2023-06-14T03:16:11.941Z,6.30
2023-06-14T03:18:42.162Z,5.55
2023-06-14T03:21:11.928Z,5.97
2023-06-14T03:23:44.010Z,3.30
2023-06-14T03:26:15.182Z,4.93
2023-06-14T03:28:42.956Z,2.85
2023-06-14T03:31:11.022Z,3.28
2023-06-14T03:33:39.938Z,2.38
2023-06-14T03:36:08.030Z,2.95
2023-06-14T03:38:35.964Z,3.00
2023-06-14T03:41:05.337Z,2.03
2023-06-14T03:43:34.580Z,1.70
2023-06-14T03:46:02.966Z,2.00
2023-06-14T03:48:32.669Z,3.88
2023-06-14T03:51:01.733Z,2.60
2023-06-14T03:53:32.006Z,2.10
2023-06-14T03:56:00.914Z,1.52
2023-06-14T03:58:36.443Z,1.75
2023-06-14T04:01:04.413Z,2.53
2023-06-14T04:03:32.599Z,2.08
2023-06-14T04:06:01.895Z,3.20
2023-06-14T04:08:29.505Z,5.07
2023-06-14T04:10:58.984Z,6.00
2023-06-14T04:13:26.406Z,5.18
2023-06-14T04:15:54.573Z,4.15
2023-06-14T04:18:27.888Z,2.03
2023-06-14T04:20:57.509Z,3.10
2023-06-14T04:23:24.991Z,5.30
2023-06-14T04:25:52.863Z,2.42
2023-06-14T04:28:20.621Z,2.60
2023-06-14T04:30:49.423Z,2.78
2023-06-14T04:33:19.601Z,5.72
2023-06-14T04:35:54.488Z,5.32
2023-06-14T04:38:26.553Z,2.90
2023-06-14T04:40:54.634Z,6.55
2023-06-14T04:43:27.156Z,11.18
2023-06-14T04:45:57.284Z,6.90
2023-06-14T04:48:26.348Z,5.75
2023-06-14T04:50:55.368Z,7.22
2023-06-14T04:53:24.134Z,7.03
2023-06-14T04:55:55.793Z,3.92
2023-06-14T04:58:25.064Z,4.00
2023-06-14T05:00:53.320Z,3.53
2023-06-14T05:03:22.028Z,5.32
2023-06-14T05:05:49.759Z,3.83
2023-06-14T05:08:17.920Z,3.30
2023-06-14T05:10:46.603Z,4.97
2023-06-14T05:13:14.282Z,3.63
2023-06-14T05:15:43.485Z,4.78
2023-06-14T05:18:11.117Z,3.88
2023-06-14T05:20:39.005Z,5.90
2023-06-14T05:23:06.701Z,4.80
2023-06-14T05:25:34.513Z,6.55
2023-06-14T05:28:02.459Z,5.03
2023-06-14T05:30:31.797Z,6.88
2023-06-14T05:32:59.185Z,4.97
2023-06-14T05:35:27.833Z,2.65
2023-06-14T05:37:55.499Z,4.25
2023-06-14T05:40:23.058Z,7.45
2023-06-14T05:42:50.716Z,4.50
2023-06-14T05:45:18.754Z,4.95
2023-06-14T05:50:45.553Z,4.70
2023-06-14T05:53:13.245Z,7.45
2023-06-14T05:55:41.768Z,3.58
2023-06-14T05:58:10.300Z,4.95
2023-06-14T06:00:38.076Z,4.15
2023-06-14T06:03:05.759Z,6.20
2023-06-14T06:05:33.478Z,2.45
2023-06-14T06:08:01.547Z,5.70
2023-06-14T06:10:28.767Z,4.50
2023-06-14T06:12:56.282Z,4.55
2023-06-14T06:15:24.275Z,7.70
2023-06-14T06:17:55.989Z,9.68
2023-06-14T06:20:29.441Z,11.43
2023-06-14T06:22:57.477Z,5.57
2023-06-14T06:25:26.792Z,5.85
2023-06-14T06:27:54.770Z,9.25
2023-06-14T06:30:22.220Z,4.47
2023-06-14T06:32:49.693Z,8.70
2023-06-14T06:35:18.094Z,8.07
2023-06-14T06:37:45.762Z,11.50
2023-06-14T06:40:13.833Z,8.63
2023-06-14T06:42:41.253Z,5.50
2023-06-14T06:45:12.904Z,7.75
2023-06-14T06:47:40.658Z,9.80
2023-06-14T06:50:09.332Z,7.88
2023-06-14T06:52:37.580Z,8.75
2023-06-14T06:55:05.659Z,7.07
2023-06-14T06:57:33.161Z,5.13
2023-06-14T07:00:01.147Z,5.57
2023-06-14T07:02:29.607Z,11.35
2023-06-14T07:04:57.231Z,10.32
2023-06-14T07:07:24.538Z,9.35
2023-06-14T07:09:52.163Z,6.32
2023-06-14T07:12:19.581Z,4.60
2023-06-14T07:14:47.286Z,5.10
2023-06-14T07:17:15.241Z,6.22
2023-06-14T07:19:42.542Z,5.00
2023-06-14T07:22:11.670Z,4.43
2023-06-14T07:24:41.278Z,8.55
2023-06-14T07:27:09.178Z,5.93
2023-06-14T07:29:36.991Z,6.68
2023-06-14T07:32:07.643Z,7.68
2023-06-14T07:34:35.572Z,4.18
2023-06-14T07:37:03.351Z,4.10
2023-06-14T07:39:31.157Z,4.38
2023-06-14T07:41:58.540Z,2.85
2023-06-14T07:44:26.626Z,2.22
2023-06-14T07:46:54.280Z,2.60
2023-06-14T07:49:22.016Z,5.85
2023-06-14T07:51:49.610Z,2.72
2023-06-14T07:54:17.829Z,2.60
2023-06-14T07:56:45.206Z,3.17
2023-06-14T07:59:12.832Z,4.43
2023-06-14T08:01:40.615Z,3.55
2023-06-14T08:04:08.041Z,3.50
2023-06-14T08:06:35.742Z,3.90
2023-06-14T08:09:03.227Z,8.05
2023-06-14T08:11:30.778Z,4.40
2023-06-14T08:14:01.279Z,3.17
2023-06-14T08:16:28.795Z,5.65
2023-06-14T08:18:56.846Z,4.65
2023-06-14T08:21:25.040Z,2.50
2023-06-14T08:23:54.420Z,1.63
2023-06-14T08:26:21.982Z,2.22
2023-06-14T08:28:49.334Z,4.13
2023-06-14T08:31:16.750Z,3.47
2023-06-14T08:33:44.354Z,2.63
2023-06-14T08:36:12.890Z,1.65
2023-06-14T08:38:41.042Z,2.20
2023-06-14T08:41:08.717Z,2.97
2023-06-14T08:43:36.128Z,2.47
2023-06-14T08:46:04.605Z,2.30
2023-06-14T08:48:35.437Z,3.20
2023-06-14T08:51:03.188Z,3.38
2023-06-14T08:53:36.661Z,2.33
2023-06-14T08:56:06.749Z,3.08
2023-06-14T08:58:34.978Z,8.10
2023-06-14T09:01:06.248Z,4.78
2023-06-14T09:03:34.098Z,5.82
2023-06-14T09:06:01.882Z,3.58
2023-06-14T09:08:31.278Z,3.40
2023-06-14T09:10:59.700Z,3.70
2023-06-14T09:13:30.700Z,8.30
2023-06-14T09:15:59.341Z,6.50
2023-06-14T09:18:39.909Z,6.60
2023-06-14T09:21:09.317Z,4.47
2023-06-14T09:23:43.071Z,8.40
2023-06-14T09:26:17.425Z,6.30
2023-06-14T09:28:45.904Z,5.15
2023-06-14T09:31:14.371Z,5.13
2023-06-14T09:33:51.534Z,3.40
2023-06-14T09:36:19.595Z,5.72
2023-06-14T09:39:01.456Z,6.65
2023-06-14T09:41:36.544Z,4.45
2023-06-14T09:44:08.829Z,4.75
2023-06-14T09:46:38.178Z,5.22
2023-06-14T09:49:06.964Z,3.08
2023-06-14T09:51:35.410Z,3.58
2023-06-14T09:54:05.498Z,9.02
2023-06-14T09:56:34.580Z,5.13
2023-06-14T09:59:08.044Z,6.03
2023-06-14T10:01:42.831Z,3.05
2023-06-14T10:04:12.195Z,6.68
2023-06-14T10:06:44.841Z,2.47
2023-06-14T10:09:12.783Z,9.18
2023-06-14T10:11:46.820Z,6.60
2023-06-14T10:14:16.971Z,5.68
2023-06-14T10:17:10.155Z,5.90
2023-06-14T10:19:44.108Z,5.18
2023-06-14T10:22:13.801Z,4.22
2023-06-14T10:24:45.305Z,4.88
2023-06-14T10:27:18.094Z,3.33
2023-06-14T10:29:55.036Z,6.53
2023-06-14T10:32:23.141Z,6.03
2023-06-14T10:34:58.105Z,4.53
2023-06-14T10:37:25.870Z,5.05
2023-06-14T10:39:54.287Z,11.23
2023-06-14T10:42:24.426Z,5.97
2023-06-14T10:45:06.142Z,12.90
2023-06-14T10:47:36.869Z,7.13
2023-06-14T10:50:06.560Z,5.95
2023-06-14T10:52:36.798Z,3.60
2023-06-14T10:55:23.976Z,4.00
2023-06-14T10:57:59.619Z,3.03
2023-06-14T11:00:29.291Z,3.40
2023-06-14T11:03:01.333Z,4.22
2023-06-14T11:05:31.992Z,7.13
2023-06-14T11:08:22.043Z,5.05
2023-06-14T11:10:49.494Z,9.63
2023-06-14T11:13:17.450Z,11.95
2023-06-14T11:15:48.221Z,9.48
2023-06-14T11:18:17.747Z,7.10
2023-06-14T11:20:47.078Z,16.05
2023-06-14T11:23:14.555Z,8.02
2023-06-14T11:25:41.781Z,16.83
2023-06-14T11:28:10.672Z,17.67
2023-06-14T11:30:38.798Z,12.85
2023-06-14T11:33:10.515Z,10.55
2023-06-14T11:35:39.416Z,9.45
2023-06-14T11:38:08.700Z,7.13
2023-06-14T11:40:36.279Z,8.20
2023-06-14T11:43:03.517Z,7.07
2023-06-14T11:45:31.665Z,7.13
2023-06-14T11:48:02.410Z,7.00
2023-06-14T11:50:31.242Z,21.23
2023-06-14T11:53:11.492Z,19.17
2023-06-14T11:55:40.198Z,10.60
2023-06-14T11:58:08.699Z,9.32
2023-06-14T12:00:37.738Z,8.55
2023-06-14T12:03:05.638Z,4.47
2023-06-14T12:05:35.314Z,6.03
2023-06-14T12:08:04.441Z,6.78
2023-06-14T12:10:31.889Z,6.80
2023-06-14T12:13:00.145Z,8.18
2023-06-14T12:15:31.407Z,13.18
2023-06-14T12:18:02.279Z,9.40
2023-06-14T12:20:32.802Z,7.13
2023-06-14T12:23:01.932Z,11.13
2023-06-14T12:25:34.459Z,12.13
2023-06-14T12:28:09.466Z,17.90
2023-06-14T12:30:37.648Z,20.02
2023-06-14T12:33:05.774Z,15.65
2023-06-14T12:35:33.552Z,13.95
2023-06-14T12:38:01.493Z,18.17
2023-06-14T12:40:29.526Z,17.42
2023-06-14T12:42:57.190Z,9.52
2023-06-14T12:45:25.077Z,10.75
2023-06-14T12:47:53.106Z,16.05
2023-06-14T12:50:24.615Z,11.30
2023-06-14T12:52:53.795Z,11.02
2023-06-14T12:55:21.827Z,11.20
2023-06-14T12:57:51.227Z,8.43
2023-06-14T13:00:19.380Z,12.63
2023-06-14T13:02:47.959Z,8.68
2023-06-14T13:05:15.837Z,7.45
2023-06-14T13:07:43.793Z,8.63
2023-06-14T13:10:11.931Z,8.35
2023-06-14T13:12:39.498Z,7.25
2023-06-14T13:15:08.902Z,8.30
2023-06-14T13:17:39.442Z,8.45
2023-06-14T13:20:08.036Z,7.30
2023-06-14T13:22:35.816Z,8.75
2023-06-14T13:28:33.737Z,6.70
2023-06-14T13:31:01.994Z,3.97
2023-06-14T13:33:29.579Z,21.95
2023-06-14T13:35:57.837Z,15.00
2023-06-14T13:38:25.620Z,10.45
2023-06-14T13:40:53.365Z,7.90
2023-06-14T13:43:20.761Z,33.63
2023-06-14T13:54:25.517Z,14.10
2023-06-14T13:56:53.181Z,12.73
2023-06-14T13:59:20.728Z,11.32
2023-06-14T14:01:49.487Z,8.90
2023-06-14T14:04:18.325Z,10.68
2023-06-14T14:06:49.268Z,12.65
2023-06-14T14:09:17.365Z,9.52
2023-06-14T14:11:45.032Z,12.40
2023-06-14T14:14:12.820Z,11.10
2023-06-14T14:16:40.906Z,13.05
2023-06-14T14:19:08.587Z,12.50
2023-06-14T14:21:37.934Z,13.63
2023-06-14T14:24:05.945Z,15.45
2023-06-14T14:26:33.380Z,12.73
2023-06-14T14:29:02.213Z,10.50
2023-06-14T14:31:29.776Z,13.85
2023-06-14T14:33:57.606Z,30.73
2023-06-14T14:36:24.871Z,23.40
2023-06-14T14:38:56.388Z,40.45
2023-06-14T14:41:26.212Z,26.75
2023-06-14T14:43:54.979Z,21.50
2023-06-14T14:46:26.864Z,19.35
2023-06-14T14:48:55.663Z,17.17
2023-06-14T14:51:23.102Z,18.77
2023-06-14T14:53:51.666Z,19.27
2023-06-14T14:56:20.229Z,19.52
2023-06-14T14:58:47.907Z,20.55
2023-06-14T15:01:17.207Z,16.92
2023-06-14T15:03:58.618Z,17.52
2023-06-14T15:06:27.492Z,15.70
2023-06-14T15:08:55.049Z,16.08
2023-06-14T15:11:22.699Z,17.45
2023-06-14T15:13:54.541Z,16.55
2023-06-14T15:16:22.375Z,14.50
2023-06-14T15:18:49.954Z,14.88
2023-06-14T15:21:22.085Z,19.08
2023-06-14T15:23:51.003Z,12.18
2023-06-14T15:26:18.379Z,11.65
2023-06-14T15:28:45.816Z,9.35
2023-06-14T15:31:13.686Z,8.95
2023-06-14T15:33:42.115Z,14.15
2023-06-14T15:36:11.666Z,10.27
2023-06-14T15:38:39.199Z,11.45
2023-06-14T15:41:07.714Z,15.63
2023-06-14T15:43:35.626Z,17.10
2023-06-14T15:46:02.914Z,16.05
2023-06-14T15:48:32.372Z,15.43
2023-06-14T15:51:05.762Z,16.98
2023-06-14T15:53:37.903Z,18.20
2023-06-14T15:56:05.985Z,14.85
2023-06-14T15:58:33.928Z,14.30
2023-06-14T16:01:01.634Z,13.90
2023-06-14T16:03:29.427Z,16.48
2023-06-14T16:05:57.735Z,14.00
2023-06-14T16:08:39.653Z,14.20
2023-06-14T16:11:09.038Z,11.10
2023-06-14T16:13:36.632Z,14.75
2023-06-14T16:16:04.692Z,11.40
2023-06-14T16:18:42.346Z,12.13
2023-06-14T16:21:11.868Z,11.85
2023-06-14T16:23:44.728Z,13.38
2023-06-14T16:26:13.616Z,12.65
2023-06-14T16:28:45.573Z,12.45
2023-06-14T16:31:17.234Z,17.20
2023-06-14T16:33:45.092Z,12.40
2023-06-14T16:36:13.637Z,24.05
2023-06-14T16:38:41.359Z,13.93
2023-06-14T16:41:09.035Z,12.68
2023-06-14T16:43:36.989Z,12.80
2023-06-14T16:46:04.487Z,10.60
2023-06-14T16:48:32.078Z,11.38
2023-06-14T16:50:59.480Z,9.70
2023-06-14T16:53:27.820Z,16.02
2023-06-14T16:55:55.674Z,13.50
2023-06-14T16:58:23.327Z,11.25
2023-06-14T17:00:51.807Z,10.10
2023-06-14T17:03:19.668Z,12.98
2023-06-14T17:05:59.716Z,12.00
2023-06-14T17:08:27.634Z,12.10
2023-06-14T17:10:56.148Z,13.93
2023-06-14T17:13:23.882Z,12.82
2023-06-14T17:15:51.358Z,12.70
2023-06-14T17:18:19.175Z,17.20
2023-06-14T17:20:47.179Z,11.80
2023-06-14T17:23:14.766Z,17.48
2023-06-14T17:25:42.194Z,12.50
2023-06-14T17:28:09.813Z,13.32
2023-06-14T17:30:37.608Z,12.35
2023-06-14T17:33:14.953Z,13.23
2023-06-14T17:35:43.554Z,12.65
2023-06-14T17:38:12.577Z,13.90
2023-06-14T17:40:49.890Z,8.95
2023-06-14T17:43:19.592Z,11.40
2023-06-14T17:45:48.085Z,10.98
2023-06-14T17:48:15.640Z,12.75
2023-06-14T17:50:43.401Z,11.35
2023-06-14T17:53:10.763Z,10.00
2023-06-14T17:55:38.775Z,11.27
2023-06-14T17:58:06.851Z,14.25
2023-06-14T18:00:34.913Z,13.02
2023-06-14T18:03:03.489Z,13.43
2023-06-14T18:05:31.234Z,9.88
2023-06-14T18:08:00.084Z,13.50
2023-06-14T18:10:27.735Z,11.25
2023-06-14T18:12:56.217Z,13.10
2023-06-14T18:15:23.711Z,14.40
2023-06-14T18:17:52.150Z,13.18
2023-06-14T18:20:20.231Z,13.95
2023-06-14T18:22:48.919Z,14.13
2023-06-14T18:25:19.556Z,15.07
2023-06-14T18:27:47.263Z,16.08
2023-06-14T18:30:15.885Z,17.45
2023-06-14T18:32:47.542Z,13.07
2023-06-14T18:35:16.793Z,11.77
2023-06-14T18:37:45.627Z,14.35
2023-06-14T18:40:14.248Z,15.85
2023-06-14T18:42:42.920Z,14.13
2023-06-14T18:45:10.842Z,12.15
2023-06-14T18:47:38.757Z,12.02
2023-06-14T18:50:07.148Z,13.95
2023-06-14T18:52:35.210Z,18.17
2023-06-14T18:55:05.714Z,16.45
2023-06-14T18:57:34.044Z,13.18
2023-06-14T19:00:02.091Z,15.40
2023-06-14T19:02:31.306Z,14.15
2023-06-14T19:04:59.917Z,11.93
2023-06-14T19:07:27.277Z,14.52
2023-06-14T19:09:54.855Z,14.63
2023-06-14T19:12:22.302Z,11.88
2023-06-14T19:14:49.511Z,11.55
2023-06-14T19:17:17.835Z,12.23
2023-06-14T19:19:46.183Z,15.43
2023-06-14T19:22:14.723Z,12.10
2023-06-14T19:24:42.293Z,14.60
2023-06-14T19:27:09.457Z,19.80
2023-06-14T19:29:37.155Z,14.52
2023-06-14T19:32:05.835Z,15.07
2023-06-14T19:34:33.406Z,13.02
2023-06-14T19:37:01.094Z,12.98
2023-06-14T19:39:28.641Z,15.85
2023-06-14T19:41:56.445Z,9.95
2023-06-14T19:44:23.664Z,20.35
2023-06-14T19:46:51.310Z,16.80
2023-06-14T19:49:19.221Z,15.05
2023-06-14T19:51:46.451Z,17.77
2023-06-14T19:54:14.012Z,15.93
2023-06-14T19:56:41.596Z,20.23
2023-06-14T19:59:09.103Z,20.85
2023-06-14T20:01:36.469Z,17.55
2023-06-14T20:04:04.432Z,18.67
2023-06-14T20:06:32.114Z,11.13
2023-06-14T20:08:59.985Z,22.75
2023-06-14T20:11:28.409Z,74.45
2023-06-14T20:13:56.035Z,41.97
2023-06-14T20:16:24.101Z,46.15
2023-06-14T20:18:52.086Z,32.65
2023-06-14T20:21:19.425Z,28.58
2023-06-14T20:23:47.195Z,15.88
2023-06-14T20:26:14.994Z,19.10
2023-06-14T20:28:42.490Z,13.40
2023-06-14T20:31:11.628Z,13.35
2023-06-14T20:33:39.399Z,11.98
2023-06-14T20:36:07.220Z,12.93
2023-06-14T20:38:34.443Z,12.98
2023-06-14T20:41:01.820Z,11.73
2023-06-14T20:43:29.710Z,14.70
2023-06-14T20:45:57.987Z,13.65
2023-06-14T20:48:26.422Z,16.08
2023-06-14T20:50:54.015Z,15.77
2023-06-14T20:53:21.891Z,15.23
2023-06-14T20:55:49.319Z,17.65
2023-06-14T20:58:18.140Z,11.82
2023-06-14T21:00:45.711Z,13.63
2023-06-14T21:03:13.669Z,13.52
2023-06-14T21:05:41.741Z,15.38
2023-06-14T21:08:09.012Z,7.35
2023-06-14T21:10:37.141Z,8.32
2023-06-14T21:13:04.649Z,9.48
2023-06-14T21:15:35.499Z,7.55
2023-06-14T21:18:03.287Z,9.18
2023-06-14T21:20:30.768Z,8.32
2023-06-14T21:22:58.252Z,10.07
2023-06-14T21:25:25.584Z,8.55
2023-06-14T21:27:53.005Z,8.55
2023-06-14T21:30:31.584Z,8.30
2023-06-14T21:32:58.860Z,10.27
2023-06-14T21:35:26.411Z,8.15
2023-06-14T21:37:54.902Z,9.02
2023-06-14T21:40:22.090Z,9.15
2023-06-14T21:42:49.565Z,9.32
2023-06-14T21:45:17.376Z,9.20
2023-06-14T21:47:46.629Z,12.50
2023-06-14T21:50:14.449Z,7.38
2023-06-14T21:52:41.788Z,8.65
2023-06-14T21:55:09.635Z,10.43
2023-06-14T21:57:37.210Z,13.45
2023-06-14T22:00:05.690Z,8.32
2023-06-14T22:02:33.911Z,9.65
2023-06-14T22:05:01.422Z,11.15
2023-06-14T22:07:32.092Z,8.00
2023-06-14T22:10:00.448Z,8.27
2023-06-14T22:12:29.412Z,9.45
2023-06-14T22:14:57.009Z,10.00
2023-06-14T22:17:25.134Z,12.00
2023-06-14T22:19:52.864Z,10.40
2023-06-14T22:22:30.320Z,10.02
2023-06-14T22:24:57.993Z,16.50
2023-06-14T22:27:27.236Z,16.30
2023-06-14T22:29:58.146Z,12.07
2023-06-14T22:32:29.773Z,13.52
2023-06-14T22:34:57.781Z,14.95
2023-06-14T22:37:36.732Z,18.90
2023-06-14T22:40:12.184Z,19.77
2023-06-14T22:42:48.896Z,13.85
2023-06-14T22:45:28.680Z,21.02
2023-06-14T22:47:57.598Z,22.65
2023-06-14T22:50:25.385Z,15.98
2023-06-14T22:52:53.582Z,15.00
2023-06-14T22:55:21.330Z,12.23
2023-06-14T22:57:49.981Z,10.82
2023-06-14T23:00:18.462Z,8.63
2023-06-14T23:02:46.941Z,7.85
2023-06-14T23:05:15.070Z,7.10
2023-06-14T23:07:43.550Z,6.95
2023-06-14T23:10:11.693Z,6.30
2023-06-14T23:12:41.776Z,5.65
2023-06-14T23:15:10.200Z,7.50
2023-06-14T23:17:42.910Z,7.53
2023-06-14T23:20:10.976Z,11.48
2023-06-14T23:22:42.333Z,10.82
2023-06-14T23:25:10.710Z,13.65
2023-06-14T23:27:38.558Z,15.45
2023-06-14T23:30:06.825Z,13.95
2023-06-14T23:32:35.031Z,12.70
2023-06-14T23:35:03.662Z,10.95
2023-06-14T23:37:31.696Z,10.85
2023-06-14T23:40:01.615Z,6.88
2023-06-14T23:42:32.530Z,9.05
2023-06-14T23:45:03.595Z,8.48
2023-06-14T23:47:34.433Z,8.05
2023-06-14T23:50:01.952Z,6.38
2023-06-14T23:52:30.877Z,4.57
2023-06-14T23:55:02.956Z,6.45
2023-06-14T23:57:31.950Z,6.32
2023-06-14T23:59:59.849Z,5.35
